WZZ55 EGKK-EPKK
Flight info
| Callsign | WZZ55 |
|---|---|
| Flight time | N/A |
| Altitude | 35000 |
| Route | MIMFO Y312 DVR UL9 KONAN UL607 FERDI DCT MATUG DCT GUBAX DCT KOMIB L984 LONLI DCT ABERU L984 OKG DCT PADKA |
| Aircraft | A321/M-SDE3FGHIRWY/LB1 |
Departure
| Time | 2026-04-17 08:43 |
|---|---|
| Airport | London Gatwick Airport (EGKK) |
Arrival
| Time | N/A |
|---|---|
| Airport | Kraków John Paul II International Airport (EPKK) |
| Time | Latitude | Longitude | Altitude | Speed | Heading |
|---|---|---|---|---|---|
| 2026-04-17 08:28 | 51.15492 | -0.16901 | 204 ft | 0 kts | 347° |
| 2026-04-17 08:36 | 51.15481 | -0.16898 | 214 ft | 3 kts | 353° |
| 2026-04-17 08:36 | 51.15461 | -0.16896 | 213 ft | 3 kts | 12° |
| 2026-04-17 08:36 | 51.15444 | -0.16907 | 214 ft | 3 kts | 44° |
| 2026-04-17 08:36 | 51.15435 | -0.16926 | 215 ft | 1 kts | 76° |
| 2026-04-17 08:37 | 51.15434 | -0.16930 | 215 ft | 0 kts | 77° |
| 2026-04-17 08:39 | 51.15436 | -0.16919 | 212 ft | 2 kts | 77° |
| 2026-04-17 08:39 | 51.15440 | -0.16891 | 204 ft | 3 kts | 77° |
| 2026-04-17 08:39 | 51.15446 | -0.16846 | 204 ft | 5 kts | 77° |
| 2026-04-17 08:39 | 51.15453 | -0.16785 | 210 ft | 6 kts | 82° |
| 2026-04-17 08:40 | 51.15434 | -0.16727 | 206 ft | 7 kts | 152° |
| 2026-04-17 08:40 | 51.15385 | -0.16709 | 208 ft | 8 kts | 168° |
| 2026-04-17 08:40 | 51.15329 | -0.16683 | 208 ft | 9 kts | 161° |
| 2026-04-17 08:40 | 51.15265 | -0.16658 | 207 ft | 10 kts | 168° |
| 2026-04-17 08:41 | 51.15193 | -0.16634 | 210 ft | 9 kts | 168° |
| 2026-04-17 08:41 | 51.15168 | -0.16626 | 214 ft | 2 kts | 169° |
| 2026-04-17 08:41 | 51.15148 | -0.16635 | 203 ft | 4 kts | 220° |
| 2026-04-17 08:41 | 51.15141 | -0.16666 | 206 ft | 0 kts | 255° |
| 2026-04-17 08:42 | 51.15138 | -0.16683 | 213 ft | 6 kts | 256° |
| 2026-04-17 08:42 | 51.15080 | -0.17103 | 208 ft | 76 kts | 258° |
| 2026-04-17 08:42 | 51.14920 | -0.18261 | 205 ft | 138 kts | 257° |
| 2026-04-17 08:42 | 51.14685 | -0.19962 | 518 ft | 159 kts | 254° |
| 2026-04-17 08:43 | 51.14460 | -0.21654 | 1339 ft | 154 kts | 255° |
| 2026-04-17 08:43 | 51.14243 | -0.23316 | 2005 ft | 159 kts | 256° |
| 2026-04-17 08:43 | 51.14002 | -0.25152 | 2269 ft | 181 kts | 256° |
| 2026-04-17 08:43 | 51.13739 | -0.27223 | 2590 ft | 198 kts | 261° |
| 2026-04-17 08:44 | 51.13944 | -0.29441 | 3146 ft | 210 kts | 289° |
| 2026-04-17 08:44 | 51.14854 | -0.31306 | 3805 ft | 221 kts | 318° |
| 2026-04-17 08:44 | 51.16312 | -0.32250 | 4011 ft | 234 kts | 352° |
| 2026-04-17 08:44 | 51.17906 | -0.31729 | 4013 ft | 240 kts | 27° |
| 2026-04-17 08:45 | 51.19078 | -0.29829 | 4168 ft | 246 kts | 66° |
| 2026-04-17 08:45 | 51.19525 | -0.27180 | 4789 ft | 250 kts | 82° |
| 2026-04-17 08:45 | 51.19840 | -0.24472 | 5531 ft | 253 kts | 81° |
| 2026-04-17 08:45 | 51.20171 | -0.21704 | 6324 ft | 255 kts | 80° |
| 2026-04-17 08:46 | 51.20517 | -0.18883 | 6863 ft | 269 kts | 79° |
| 2026-04-17 08:46 | 51.20909 | -0.15827 | 7240 ft | 288 kts | 79° |
| 2026-04-17 08:46 | 51.21326 | -0.12653 | 7893 ft | 294 kts | 79° |
| 2026-04-17 08:46 | 51.21753 | -0.09429 | 8620 ft | 299 kts | 79° |
| 2026-04-17 08:47 | 51.22185 | -0.06160 | 9375 ft | 304 kts | 79° |
| 2026-04-17 08:47 | 51.22624 | -0.02820 | 10095 ft | 309 kts | 79° |
| 2026-04-17 08:47 | 51.23066 | 0.00553 | 10364 ft | 324 kts | 79° |
| 2026-04-17 08:47 | 51.23541 | 0.04210 | 10504 ft | 348 kts | 79° |
| 2026-04-17 08:48 | 51.24043 | 0.08115 | 10651 ft | 367 kts | 79° |
| 2026-04-17 08:48 | 51.24562 | 0.12165 | 11160 ft | 375 kts | 79° |
| 2026-04-17 08:48 | 51.25086 | 0.16252 | 11755 ft | 379 kts | 81° |
| 2026-04-17 08:48 | 51.25359 | 0.20454 | 12339 ft | 381 kts | 92° |
| 2026-04-17 08:49 | 51.25170 | 0.24647 | 12928 ft | 383 kts | 99° |
| 2026-04-17 08:49 | 51.24851 | 0.28887 | 13560 ft | 386 kts | 100° |
| 2026-04-17 08:49 | 51.24521 | 0.33180 | 14125 ft | 390 kts | 100° |
| 2026-04-17 08:49 | 51.24184 | 0.37507 | 14686 ft | 394 kts | 100° |
| 2026-04-17 08:50 | 51.23843 | 0.41863 | 15283 ft | 398 kts | 100° |
| 2026-04-17 08:50 | 51.23505 | 0.46213 | 15860 ft | 401 kts | 99° |
| 2026-04-17 08:50 | 51.23163 | 0.50671 | 16432 ft | 405 kts | 99° |
| 2026-04-17 08:50 | 51.22821 | 0.55146 | 17020 ft | 408 kts | 99° |
| 2026-04-17 08:51 | 51.22473 | 0.59671 | 17614 ft | 412 kts | 99° |
| 2026-04-17 08:51 | 51.22118 | 0.64226 | 18192 ft | 416 kts | 99° |
| 2026-04-17 08:51 | 51.21755 | 0.68835 | 18709 ft | 420 kts | 99° |
| 2026-04-17 08:51 | 51.21391 | 0.73416 | 19238 ft | 423 kts | 99° |
| 2026-04-17 08:52 | 51.21016 | 0.78108 | 19753 ft | 427 kts | 99° |
| 2026-04-17 08:52 | 51.20639 | 0.82815 | 20307 ft | 431 kts | 99° |
| 2026-04-17 08:52 | 51.20255 | 0.87592 | 20844 ft | 434 kts | 100° |
| 2026-04-17 08:52 | 51.19870 | 0.92355 | 21363 ft | 437 kts | 100° |
| 2026-04-17 08:53 | 51.19477 | 0.97197 | 21889 ft | 441 kts | 100° |
| 2026-04-17 08:53 | 51.19080 | 1.02062 | 22362 ft | 444 kts | 100° |
| 2026-04-17 08:53 | 51.18680 | 1.06966 | 22802 ft | 447 kts | 100° |
| 2026-04-17 08:53 | 51.18275 | 1.11896 | 23243 ft | 450 kts | 100° |
| 2026-04-17 08:54 | 51.17868 | 1.16800 | 23673 ft | 453 kts | 100° |
| 2026-04-17 08:54 | 51.17450 | 1.21803 | 24050 ft | 456 kts | 101° |
| 2026-04-17 08:54 | 51.17029 | 1.26822 | 24409 ft | 459 kts | 101° |
| 2026-04-17 08:54 | 51.16602 | 1.31885 | 24772 ft | 461 kts | 101° |
| 2026-04-17 08:55 | 51.16179 | 1.36965 | 25125 ft | 464 kts | 99° |
| 2026-04-17 08:55 | 51.15836 | 1.42093 | 25486 ft | 467 kts | 98° |
| 2026-04-17 08:55 | 51.15576 | 1.47276 | 25821 ft | 470 kts | 96° |
| 2026-04-17 08:55 | 51.15368 | 1.52442 | 26178 ft | 473 kts | 96° |
| 2026-04-17 08:56 | 51.15170 | 1.57683 | 26523 ft | 475 kts | 96° |
| 2026-04-17 08:56 | 51.14961 | 1.62953 | 26863 ft | 477 kts | 96° |
| 2026-04-17 08:56 | 51.14729 | 1.68242 | 27197 ft | 480 kts | 96° |
| 2026-04-17 08:56 | 51.14475 | 1.73488 | 27529 ft | 482 kts | 97° |
| 2026-04-17 08:57 | 51.14201 | 1.78813 | 27853 ft | 484 kts | 97° |
| 2026-04-17 08:57 | 51.13917 | 1.84169 | 28171 ft | 486 kts | 97° |
| 2026-04-17 08:57 | 51.13630 | 1.89546 | 28489 ft | 489 kts | 97° |
| 2026-04-17 08:57 | 51.13340 | 1.94948 | 28820 ft | 490 kts | 96° |
| 2026-04-17 08:58 | 51.13052 | 2.00368 | 29190 ft | 492 kts | 96° |
| 2026-04-17 08:58 | 51.12766 | 2.05823 | 29521 ft | 495 kts | 96° |
| 2026-04-17 08:58 | 51.12480 | 2.11285 | 29866 ft | 497 kts | 96° |
| 2026-04-17 08:58 | 51.12189 | 2.16792 | 30271 ft | 498 kts | 96° |